Time;durP1;ratioP1;P1;durP2;ratioP2;P2;SDS_P1;SDS_P2;PMS_P1;PMS_P2;Temp;Humidity;BMP_temperature;BMP_pressure;BME280_temperature;BME280_humidity;BME280_pressure;Samples;Min_cycle;Max_cycle;Signal;HPM_P1;HPM_P2
2024/01/09 00:01:34;;;;;;;;;;;;;;;;;;109578;1250;59166;-81
2024/01/09 00:04:01;;;;;;;;;;;;;;;;;;109400;1251;59191;-79
2024/01/09 00:06:27;;;;;;;;;;;;;;;;;;106964;1251;61050;-79
2024/01/09 00:08:54;;;;;;;;;;;;;;;;;;106988;1253;60786;-78
2024/01/09 00:11:20;;;;;;;;;;;;;;;;;;107049;1251;59827;-79
2024/01/09 00:13:46;;;;;;;;;;;;;;;;;;108901;1251;58906;-78
2024/01/09 00:16:13;;;;;;;;;;;;;;;;;;109597;1250;59110;-79
2024/01/09 00:18:39;;;;;;;;;;;;;;;;;;109555;1251;58998;-79
2024/01/09 00:21:05;;;;;;;;;;;;;;;;;;109594;1251;58895;-79
2024/01/09 00:23:32;;;;;;;;;;;;;;;;;;109588;1251;59102;-79
2024/01/09 00:25:58;;;;;;;;;;;;;;;;;;109566;1251;58804;-79
2024/01/09 00:28:24;;;;;;;;;;;;;;;;;;109581;1250;59246;-79
2024/01/09 00:30:51;;;;;;;;;;;;;;;;;;109184;1251;60929;-78
2024/01/09 00:33:17;;;;;;;;;;;;;;;;;;107155;1251;60814;-79
2024/01/09 00:35:43;;;;;;;;;;;;;;;;;;107079;1251;59845;-79
2024/01/09 00:38:10;;;;;;;;;;;;;;;;;;107086;1251;61715;-79
2024/01/09 00:40:36;;;;;;;;;;;;;;;;;;107081;1251;60792;-79
2024/01/09 00:43:03;;;;;;;;;;;;;;;;;;107137;1251;60841;-79
2024/01/09 00:45:29;;;;;;;;;;;;;;;;;;109571;1251;59239;-78
2024/01/09 00:47:55;;;;;;;;;;;;;;;;;;109556;1251;59146;-81
2024/01/09 00:50:22;;;;;;;;;;;;;;;;;;109319;1251;58876;-81
2024/01/09 00:52:48;;;;;;;;;;;;;;;;;;107604;1251;60794;-81
2024/01/09 00:55:14;;;;;;;;;;;;;;;;;;107663;1251;59814;-83
2024/01/09 00:57:41;;;;;;;;;;;;;;;;;;107645;1251;60809;-82
2024/01/09 01:00:08;;;;;;;;;;;;;;;;;;107667;1251;60899;-81
2024/01/09 01:02:34;;;;;;;;;;;;;;;;;;107632;1251;59656;-82
2024/01/09 01:05:00;;;;;;;;;;;;;;;;;;107626;1250;60884;-82
2024/01/09 01:07:27;;;;;;;;;;;;;;;;;;107621;1254;59376;-81
2024/01/09 01:09:53;;;;;;;;;;;;;;;;;;107584;1251;61322;-81
2024/01/09 01:12:20;;;;;;;;;;;;;;;;;;107475;1251;59837;-81
2024/01/09 01:14:46;;;;;;;;;;;;;;;;;;107653;1251;59890;-81
2024/01/09 01:17:12;;;;;;;;;;;;;;;;;;107576;1251;60893;-82
2024/01/09 01:19:39;;;;;;;;;;;;;;;;;;107706;1251;59820;-81
2024/01/09 01:22:05;;;;;;;;;;;;;;;;;;107586;1251;59689;-81
2024/01/09 01:24:31;;;;;;;;;;;;;;;;;;107567;1251;59880;-81
2024/01/09 01:26:58;;;;;;;;;;;;;;;;;;107441;1251;61966;-81
2024/01/09 01:29:24;;;;;;;;;;;;;;;;;;107576;1251;60913;-81
2024/01/09 01:31:50;;;;;;;;;;;;;;;;;;107713;1251;60883;-81
2024/01/09 01:34:17;;;;;;;;;;;;;;;;;;107632;1251;60930;-81
2024/01/09 01:36:43;;;;;;;;;;;;;;;;;;107631;1251;59179;-81
2024/01/09 01:39:09;;;;;;;;;;;;;;;;;;107572;1251;59898;-81
2024/01/09 01:41:36;;;;;;;;;;;;;;;;;;107480;1253;61969;-81
2024/01/09 01:44:02;;;;;;;;;;;;;;;;;;107553;1251;62111;-80
2024/01/09 01:46:28;;;;;;;;;;;;;;;;;;107599;1251;60887;-81
2024/01/09 01:48:55;;;;;;;;;;;;;;;;;;107519;1251;60807;-81
2024/01/09 01:51:21;;;;;;;;;;;;;;;;;;107586;1251;59772;-81
2024/01/09 01:53:47;;;;;;;;;;;;;;;;;;107547;1251;59340;-81
2024/01/09 01:56:13;;;;;;;;;;;;;;;;;;107569;1254;59935;-81
2024/01/09 01:58:40;;;;;;;;;;;;;;;;;;107628;1251;60291;-81
2024/01/09 02:01:06;;;;;;;;;;;;;;;;;;107626;1251;59830;-81
2024/01/09 02:03:33;;;;;;;;;;;;;;;;;;107586;1251;60730;-81
2024/01/09 02:05:59;;;;;;;;;;;;;;;;;;107640;1251;59898;-81
2024/01/09 02:08:28;;;;;;;;;;;;;;;;;;107649;1251;61004;-81
2024/01/09 02:10:54;;;;;;;;;;;;;;;;;;107619;1251;59844;-81
2024/01/09 02:13:21;;;;;;;;;;;;;;;;;;107656;1251;59211;-80
2024/01/09 02:15:47;;;;;;;;;;;;;;;;;;107567;1250;59814;-81
2024/01/09 02:18:13;;;;;;;;;;;;;;;;;;107597;1250;60165;-81
2024/01/09 02:20:40;;;;;;;;;;;;;;;;;;107666;1251;60769;-81
2024/01/09 02:23:06;;;;;;;;;;;;;;;;;;107473;1251;59822;-81
2024/01/09 02:25:33;;;;;;;;;;;;;;;;;;107581;1251;59817;-81
2024/01/09 02:28:00;;;;;;;;;;;;;;;;;;107596;1250;61999;-80
2024/01/09 02:30:26;;;;;;;;;;;;;;;;;;107574;1250;59848;-81
2024/01/09 02:32:53;;;;;;;;;;;;;;;;;;107553;1251;59972;-81
2024/01/09 02:35:19;;;;;;;;;;;;;;;;;;107518;1251;59768;-81
2024/01/09 02:37:45;;;;;;;;;;;;;;;;;;107637;1251;60777;-81
2024/01/09 02:40:12;;;;;;;;;;;;;;;;;;107534;1250;59848;-81
2024/01/09 02:42:38;;;;;;;;;;;;;;;;;;107483;1251;59328;-81
2024/01/09 02:45:04;;;;;;;;;;;;;;;;;;107490;1255;62076;-81
2024/01/09 02:47:31;;;;;;;;;;;;;;;;;;107514;1251;59811;-80
2024/01/09 02:49:57;;;;;;;;;;;;;;;;;;107595;1251;59807;-81
2024/01/09 02:52:23;;;;;;;;;;;;;;;;;;107508;1253;59718;-81
2024/01/09 02:54:50;;;;;;;;;;;;;;;;;;107585;1251;59841;-81
2024/01/09 02:57:16;;;;;;;;;;;;;;;;;;107623;1250;59718;-81
2024/01/09 02:59:42;;;;;;;;;;;;;;;;;;107522;1251;60988;-81
2024/01/09 03:02:09;;;;;;;;;;;;;;;;;;107579;1250;60881;-81
2024/01/09 03:04:35;;;;;;;;;;;;;;;;;;107680;1251;59885;-81
2024/01/09 03:07:02;;;;;;;;;;;;;;;;;;107613;1256;60816;-81
2024/01/09 03:09:28;;;;;;;;;;;;;;;;;;107565;1251;59867;-81
2024/01/09 03:11:55;;;;;;;;;;;;;;;;;;107579;1251;59740;-81
2024/01/09 03:14:21;;;;;;;;;;;;;;;;;;107669;1251;59265;-81
2024/01/09 03:16:48;;;;;;;;;;;;;;;;;;107569;1255;59718;-81
2024/01/09 03:19:14;;;;;;;;;;;;;;;;;;109608;1250;58810;-80
2024/01/09 03:21:40;;;;;;;;;;;;;;;;;;109641;1251;59018;-81
2024/01/09 03:24:07;;;;;;;;;;;;;;;;;;109684;1250;58957;-81
2024/01/09 03:26:33;;;;;;;;;;;;;;;;;;109712;1250;58790;-81
2024/01/09 03:29:02;;;;;;;;;;;;;;;;;;109685;1251;59082;-80
2024/01/09 03:31:28;;;;;;;;;;;;;;;;;;108199;1251;60818;-81
2024/01/09 03:33:56;;;;;;;;;;;;;;;;;;107569;1251;60920;-81
2024/01/09 03:36:23;;;;;;;;;;;;;;;;;;107478;1251;61262;-81
2024/01/09 03:38:53;;;;;;;;;;;;;;;;;;107573;1251;62247;-81
2024/01/09 03:41:19;;;;;;;;;;;;;;;;;;107273;1251;59774;-81
2024/01/09 03:43:46;;;;;;;;;;;;;;;;;;107511;1253;61541;-81
2024/01/09 03:46:12;;;;;;;;;;;;;;;;;;107515;1251;60938;-81
2024/01/09 03:48:38;;;;;;;;;;;;;;;;;;107504;1253;59901;-80
2024/01/09 03:51:05;;;;;;;;;;;;;;;;;;107470;1250;60889;-81
2024/01/09 03:53:31;;;;;;;;;;;;;;;;;;107527;1251;60783;-80
2024/01/09 03:55:57;;;;;;;;;;;;;;;;;;107584;1251;59829;-81
2024/01/09 03:58:24;;;;;;;;;;;;;;;;;;107642;1251;60958;-81
2024/01/09 04:00:50;;;;;;;;;;;;;;;;;;107565;1251;61985;-80
2024/01/09 04:03:16;;;;;;;;;;;;;;;;;;107100;1251;60943;-80
2024/01/09 04:05:43;;;;;;;;;;;;;;;;;;107051;1251;60874;-81
2024/01/09 04:08:09;;;;;;;;;;;;;;;;;;107577;1251;59852;-81
2024/01/09 04:10:36;;;;;;;;;;;;;;;;;;107634;1251;61176;-81
2024/01/09 04:13:02;;;;;;;;;;;;;;;;;;107615;1251;60912;-80
2024/01/09 04:15:29;;;;;;;;;;;;;;;;;;107683;1251;61992;-81
2024/01/09 04:17:55;;;;;;;;;;;;;;;;;;107569;1251;59811;-80
2024/01/09 04:20:22;;;;;;;;;;;;;;;;;;107773;1251;59888;-81
2024/01/09 04:22:48;;;;;;;;;;;;;;;;;;107750;1250;59868;-81
2024/01/09 04:25:14;;;;;;;;;;;;;;;;;;107666;1251;59798;-80
2024/01/09 04:27:41;;;;;;;;;;;;;;;;;;107767;1251;59826;-80
2024/01/09 04:30:07;;;;;;;;;;;;;;;;;;107643;1251;59810;-81
2024/01/09 04:32:33;;;;;;;;;;;;;;;;;;107624;1251;59892;-81
2024/01/09 04:35:00;;;;;;;;;;;;;;;;;;107665;1251;59848;-80
2024/01/09 04:37:26;;;;;;;;;;;;;;;;;;107650;1250;59776;-81
2024/01/09 04:39:52;;;;;;;;;;;;;;;;;;107704;1253;59764;-81
2024/01/09 04:42:19;;;;;;;;;;;;;;;;;;107541;1250;59680;-80
2024/01/09 04:44:45;;;;;;;;;;;;;;;;;;107579;1253;59310;-81
2024/01/09 04:47:15;;;;;;;;;;;;;;;;;;107529;1250;59728;-80
2024/01/09 04:49:41;;;;;;;;;;;;;;;;;;107586;1253;62877;-80
2024/01/09 04:52:08;;;;;;;;;;;;;;;;;;107585;1251;60978;-80
2024/01/09 04:54:34;;;;;;;;;;;;;;;;;;107624;1251;59331;-80
2024/01/09 04:57:01;;;;;;;;;;;;;;;;;;107642;1251;59567;-81
2024/01/09 04:59:27;;;;;;;;;;;;;;;;;;107566;1251;59816;-80
2024/01/09 05:01:53;;;;;;;;;;;;;;;;;;107708;1251;59816;-81
2024/01/09 05:04:20;;;;;;;;;;;;;;;;;;107653;1251;59852;-81
2024/01/09 05:06:46;;;;;;;;;;;;;;;;;;107641;1251;61509;-81
2024/01/09 05:09:12;;;;;;;;;;;;;;;;;;107655;1251;59727;-80
2024/01/09 05:11:39;;;;;;;;;;;;;;;;;;107646;1251;59211;-80
2024/01/09 05:14:05;;;;;;;;;;;;;;;;;;107602;1251;59825;-80
2024/01/09 05:16:32;;;;;;;;;;;;;;;;;;107696;1251;59688;-80
2024/01/09 05:18:58;;;;;;;;;;;;;;;;;;107652;1251;59809;-81
2024/01/09 05:21:24;;;;;;;;;;;;;;;;;;107670;1251;59218;-80
2024/01/09 05:23:51;;;;;;;;;;;;;;;;;;107636;1251;59877;-80
2024/01/09 05:26:17;;;;;;;;;;;;;;;;;;107602;1251;59651;-80
2024/01/09 05:28:43;;;;;;;;;;;;;;;;;;108324;1251;59752;-80
2024/01/09 05:31:10;;;;;;;;;;;;;;;;;;107557;1251;59645;-80
2024/01/09 05:33:36;;;;;;;;;;;;;;;;;;109317;1251;59028;-81
2024/01/09 05:36:02;;;;;;;;;;;;;;;;;;108203;1251;60854;-81
2024/01/09 05:38:29;;;;;;;;;;;;;;;;;;107660;1251;59899;-81
2024/01/09 05:40:55;;;;;;;;;;;;;;;;;;107734;1251;59180;-81
2024/01/09 05:43:21;;;;;;;;;;;;;;;;;;107654;1252;59589;-80
2024/01/09 05:45:48;;;;;;;;;;;;;;;;;;107513;1254;61350;-80
2024/01/09 05:48:14;;;;;;;;;;;;;;;;;;109010;1252;59123;-81
2024/01/09 05:50:40;;;;;;;;;;;;;;;;;;109644;1251;58914;-81
2024/01/09 05:53:07;;;;;;;;;;;;;;;;;;109238;1253;59813;-80
2024/01/09 05:55:34;;;;;;;;;;;;;;;;;;107644;1251;60397;-80
2024/01/09 05:58:00;;;;;;;;;;;;;;;;;;107668;1251;59769;-80
2024/01/09 06:00:26;;;;;;;;;;;;;;;;;;107784;1254;60878;-82
2024/01/09 06:02:52;;;;;;;;;;;;;;;;;;107691;1253;59745;-81
2024/01/09 06:05:19;;;;;;;;;;;;;;;;;;107786;1251;60472;-81
2024/01/09 06:07:45;;;;;;;;;;;;;;;;;;107701;1251;61022;-81
2024/01/09 06:10:12;;;;;;;;;;;;;;;;;;107569;1253;60741;-81
2024/01/09 06:12:38;;;;;;;;;;;;;;;;;;107519;1251;59272;-80
2024/01/09 06:15:04;;;;;;;;;;;;;;;;;;107594;1255;59254;-80
2024/01/09 06:17:31;;;;;;;;;;;;;;;;;;107579;1252;59178;-80
2024/01/09 06:20:00;;;;;;;;;;;;;;;;;;107606;1253;59451;-81
2024/01/09 06:22:26;;;;;;;;;;;;;;;;;;107487;1251;59117;-81
2024/01/09 06:24:53;;;;;;;;;;;;;;;;;;107653;1255;60973;-80
2024/01/09 06:27:19;;;;;;;;;;;;;;;;;;107613;1253;59816;-80
2024/01/09 06:29:45;;;;;;;;;;;;;;;;;;107517;1254;59844;-81
2024/01/09 06:32:12;;;;;;;;;;;;;;;;;;107561;1253;62017;-80
2024/01/09 06:34:38;;;;;;;;;;;;;;;;;;107417;1251;198782;-80
2024/01/09 06:37:04;;;;;;;;;;;;;;;;;;107561;1251;61222;-80
2024/01/09 06:39:31;;;;;;;;;;;;;;;;;;107570;1253;59883;-81
2024/01/09 06:41:57;;;;;;;;;;;;;;;;;;107549;1253;60945;-81
2024/01/09 06:44:23;;;;;;;;;;;;;;;;;;107486;1254;59977;-80
2024/01/09 06:46:50;;;;;;;;;;;;;;;;;;107515;1253;59255;-80
2024/01/09 06:49:16;;;;;;;;;;;;;;;;;;107898;1250;59224;-80
2024/01/09 06:51:44;;;;;;;;;;;;;;;;;;107757;1251;59803;-80
2024/01/09 06:54:10;;;;;;;;;;;;;;;;;;107653;1253;59870;-80
2024/01/09 06:56:36;;;;;;;;;;;;;;;;;;107564;1251;61259;-81
2024/01/09 06:59:03;;;;;;;;;;;;;;;;;;107677;1253;59764;-80
2024/01/09 07:01:29;;;;;;;;;;;;;;;;;;107672;1251;59904;-81
2024/01/09 07:03:55;;;;;;;;;;;;;;;;;;107673;1250;60737;-80
2024/01/09 07:06:22;;;;;;;;;;;;;;;;;;107680;1251;59428;-81
2024/01/09 07:08:48;;;;;;;;;;;;;;;;;;107641;1251;62137;-80
2024/01/09 07:11:14;;;;;;;;;;;;;;;;;;107678;1253;59902;-80
2024/01/09 07:13:42;;;;;;;;;;;;;;;;;;107968;1251;62030;-80
2024/01/09 07:16:08;;;;;;;;;;;;;;;;;;107743;1256;60963;-81
2024/01/09 07:18:35;;;;;;;;;;;;;;;;;;107808;1251;60817;-80
2024/01/09 07:21:01;;;;;;;;;;;;;;;;;;107995;1251;59578;-81
2024/01/09 07:23:28;;;;;;;;;;;;;;;;;;109375;1254;58957;-81
2024/01/09 07:25:54;;;;;;;;;;;;;;;;;;109454;1253;58940;-80
2024/01/09 07:28:20;;;;;;;;;;;;;;;;;;109272;1253;58799;-81
2024/01/09 07:30:47;;;;;;;;;;;;;;;;;;108566;1251;59226;-80
2024/01/09 07:33:14;;;;;;;;;;;;;;;;;;108666;1250;59307;-80
2024/01/09 07:35:40;;;;;;;;;;;;;;;;;;108648;1251;59698;-80
2024/01/09 07:38:07;;;;;;;;;;;;;;;;;;108609;1256;59883;-80
2024/01/09 07:40:33;;;;;;;;;;;;;;;;;;108782;1253;59177;-80
2024/01/09 07:43:00;;;;;;;;;;;;;;;;;;108646;1253;59858;-80
2024/01/09 07:45:29;;;;;;;;;;;;;;;;;;107787;1253;59852;-80
2024/01/09 07:47:55;;;;;;;;;;;;;;;;;;107838;1253;59420;-80
2024/01/09 07:50:22;;;;;;;;;;;;;;;;;;107918;1251;62073;-80
2024/01/09 07:52:48;;;;;;;;;;;;;;;;;;107890;1251;59815;-80
2024/01/09 07:55:15;;;;;;;;;;;;;;;;;;107799;1251;61957;-80
2024/01/09 07:57:41;;;;;;;;;;;;;;;;;;107803;1251;59604;-80
2024/01/09 08:00:08;;;;;;;;;;;;;;;;;;107797;1257;60754;-80
2024/01/09 08:02:34;;;;;;;;;;;;;;;;;;107409;1253;59136;-80
2024/01/09 08:05:01;;;;;;;;;;;;;;;;;;107354;1253;61066;-80
2024/01/09 08:07:27;;;;;;;;;;;;;;;;;;107341;1253;59214;-80
2024/01/09 08:09:53;;;;;;;;;;;;;;;;;;107227;1251;62015;-80
2024/01/09 08:12:20;;;;;;;;;;;;;;;;;;107499;1250;60892;-80
2024/01/09 08:14:48;;;;;;;;;;;;;;;;;;107458;1254;60938;-80
2024/01/09 08:17:14;;;;;;;;;;;;;;;;;;107451;1256;59825;-81
2024/01/09 08:19:40;;;;;;;;;;;;;;;;;;107689;1251;60881;-80
2024/01/09 08:22:07;;;;;;;;;;;;;;;;;;107758;1254;59836;-80
2024/01/09 08:24:33;;;;;;;;;;;;;;;;;;107868;1256;59907;-80
2024/01/09 08:27:00;;;;;;;;;;;;;;;;;;107825;1255;59325;-80
2024/01/09 08:29:27;;;;;;;;;;;;;;;;;;107716;1251;60631;-80
2024/01/09 08:31:53;;;;;;;;;;;;;;;;;;108027;1255;60799;-80
2024/01/09 08:34:20;;;;;;;;;;;;;;;;;;107843;1251;59708;-81
2024/01/09 08:36:48;;;;;;;;;;;;;;;;;;107686;1254;59699;-81
2024/01/09 08:39:14;;;;;;;;;;;;;;;;;;107758;1251;61776;-81
2024/01/09 08:41:41;;;;;;;;;;;;;;;;;;107910;1256;59673;-80
2024/01/09 08:44:07;;;;;;;;;;;;;;;;;;108035;1251;60587;-81
2024/01/09 08:46:34;;;;;;;;;;;;;;;;;;107937;1254;59679;-81
2024/01/09 08:49:00;;;;;;;;;;;;;;;;;;107954;1251;59656;-81
2024/01/09 08:51:27;;;;;;;;;;;;;;;;;;108015;1251;59792;-80
2024/01/09 08:53:54;;;;;;;;;;;;;;;;;;107993;1251;59845;-81
2024/01/09 08:56:20;;;;;;;;;;;;;;;;;;107966;1251;60593;-81
2024/01/09 08:58:46;;;;;;;;;;;;;;;;;;107881;1255;59442;-81
2024/01/09 09:01:13;;;;;;;;;;;;;;;;;;107999;1255;59746;-81
2024/01/09 09:03:39;;;;;;;;;;;;;;;;;;108070;1254;59807;-80
2024/01/09 09:06:06;;;;;;;;;;;;;;;;;;107935;1252;59815;-80
2024/01/09 09:08:33;;;;;;;;;;;;;;;;;;107962;1255;60906;-81
2024/01/09 09:10:59;;;;;;;;;;;;;;;;;;108091;1251;59812;-81
2024/01/09 09:13:26;;;;;;;;;;;;;;;;;;108075;1251;59168;-81
2024/01/09 09:15:52;;;;;;;;;;;;;;;;;;108113;1254;59406;-81
2024/01/09 09:18:18;;;;;;;;;;;;;;;;;;108049;1254;59546;-81
2024/01/09 09:20:45;;;;;;;;;;;;;;;;;;108225;1255;62079;-81
2024/01/09 09:23:11;;;;;;;;;;;;;;;;;;109436;1250;59193;-81
2024/01/09 09:25:37;;;;;;;;;;;;;;;;;;108462;1251;59258;-78
2024/01/09 09:28:04;;;;;;;;;;;;;;;;;;107675;1251;59563;-79
2024/01/09 09:30:30;;;;;;;;;;;;;;;;;;107918;1256;60769;-78
2024/01/09 09:32:58;;;;;;;;;;;;;;;;;;107698;1254;61045;-81
2024/01/09 09:35:24;;;;;;;;;;;;;;;;;;107851;1251;59379;-78
2024/01/09 09:37:51;;;;;;;;;;;;;;;;;;107536;1251;59542;-78
2024/01/09 09:40:17;;;;;;;;;;;;;;;;;;108151;1253;60949;-78
2024/01/09 09:42:43;;;;;;;;;;;;;;;;;;108514;1251;59815;-79
2024/01/09 09:45:11;;;;;;;;;;;;;;;;;;107476;1254;61255;-78
2024/01/09 09:47:37;;;;;;;;;;;;;;;;;;107356;1251;59757;-79
2024/01/09 09:50:04;;;;;;;;;;;;;;;;;;107761;1251;59767;-78
2024/01/09 09:52:30;;;;;;;;;;;;;;;;;;108996;1251;62578;-78
2024/01/09 09:54:57;;;;;;;;;;;;;;;;;;108012;1251;59249;-78
2024/01/09 09:57:24;;;;;;;;;;;;;;;;;;108272;1254;59702;-78
2024/01/09 09:59:50;;;;;;;;;;;;;;;;;;107420;1251;59687;-78
2024/01/09 10:02:17;;;;;;;;;;;;;;;;;;107261;1251;62139;-78
2024/01/09 10:04:43;;;;;;;;;;;;;;;;;;107356;1253;62117;-78
2024/01/09 10:07:10;;;;;;;;;;;;;;;;;;107402;1254;59757;-78
2024/01/09 10:09:38;;;;;;;;;;;;;;;;;;107291;1251;59520;-78
2024/01/09 10:12:04;;;;;;;;;;;;;;;;;;107292;1251;59839;-78
2024/01/09 10:14:31;;;;;;;;;;;;;;;;;;107118;1251;61014;-79
2024/01/09 10:17:00;;;;;;;;;;;;;;;;;;106882;1251;61933;-78
2024/01/09 10:19:27;;;;;;;;;;;;;;;;;;107348;1253;59875;-78
2024/01/09 10:21:53;;;;;;;;;;;;;;;;;;108916;1252;59850;-79
2024/01/09 10:24:20;;;;;;;;;;;;;;;;;;107144;1251;59930;-79
2024/01/09 10:26:46;;;;;;;;;;;;;;;;;;108272;1251;62025;-78
2024/01/09 10:29:13;;;;;;;;;;;;;;;;;;107461;1251;61698;-79
2024/01/09 10:31:40;;;;;;;;;;;;;;;;;;109362;1251;58904;-79
2024/01/09 10:34:06;;;;;;;;;;;;;;;;;;107391;1251;59846;-79
2024/01/09 10:36:32;;;;;;;;;;;;;;;;;;107674;1251;60841;-79
2024/01/09 10:38:59;;;;;;;;;;;;;;;;;;107939;1251;59800;-78
2024/01/09 10:41:26;;;;;;;;;;;;;;;;;;107437;1251;59425;-79
2024/01/09 10:43:52;;;;;;;;;;;;;;;;;;107157;1251;59837;-79
2024/01/09 10:46:18;;;;;;;;;;;;;;;;;;107412;1251;59909;-79
2024/01/09 10:48:45;;;;;;;;;;;;;;;;;;107805;1253;61117;-78
2024/01/09 10:51:12;;;;;;;;;;;;;;;;;;107383;1251;61058;-79
2024/01/09 10:53:38;;;;;;;;;;;;;;;;;;107874;1251;59251;-78
2024/01/09 10:56:05;;;;;;;;;;;;;;;;;;107260;1251;61054;-79
2024/01/09 10:58:31;;;;;;;;;;;;;;;;;;107562;1251;59774;-79
2024/01/09 11:00:58;;;;;;;;;;;;;;;;;;107616;1251;59831;-79
2024/01/09 11:03:24;;;;;;;;;;;;;;;;;;107486;1251;59740;-79
2024/01/09 11:05:51;;;;;;;;;;;;;;;;;;107367;1251;59617;-80
2024/01/09 11:08:17;;;;;;;;;;;;;;;;;;107367;1251;60836;-79
2024/01/09 11:10:44;;;;;;;;;;;;;;;;;;107614;1252;59813;-78
2024/01/09 11:13:10;;;;;;;;;;;;;;;;;;108158;1251;59842;-79
2024/01/09 11:15:38;;;;;;;;;;;;;;;;;;107581;1251;59631;-79
2024/01/09 11:18:04;;;;;;;;;;;;;;;;;;107352;1251;60873;-79
2024/01/09 11:20:30;;;;;;;;;;;;;;;;;;107933;1251;60503;-78
2024/01/09 11:22:57;;;;;;;;;;;;;;;;;;109007;1251;59768;-79
2024/01/09 11:25:24;;;;;;;;;;;;;;;;;;107298;1251;60934;-80
2024/01/09 11:27:52;;;;;;;;;;;;;;;;;;107312;1251;60760;-78
2024/01/09 11:30:18;;;;;;;;;;;;;;;;;;107297;1251;61927;-78
2024/01/09 11:32:44;;;;;;;;;;;;;;;;;;107317;1253;60986;-77
2024/01/09 11:35:11;;;;;;;;;;;;;;;;;;107587;1251;60785;-78
2024/01/09 11:37:40;;;;;;;;;;;;;;;;;;108182;1250;59687;-79
2024/01/09 11:40:06;;;;;;;;;;;;;;;;;;108114;1251;59819;-79
2024/01/09 11:42:33;;;;;;;;;;;;;;;;;;107860;1251;59879;-79
2024/01/09 11:44:59;;;;;;;;;;;;;;;;;;107929;1251;59355;-79
2024/01/09 11:47:25;;;;;;;;;;;;;;;;;;107109;1251;61022;-79
2024/01/09 11:49:52;;;;;;;;;;;;;;;;;;107983;1251;59755;-79
2024/01/09 11:52:18;;;;;;;;;;;;;;;;;;108936;1251;59231;-79
2024/01/09 11:54:44;;;;;;;;;;;;;;;;;;107059;1251;59869;-79
2024/01/09 11:57:11;;;;;;;;;;;;;;;;;;107178;1251;59734;-79
2024/01/09 11:59:37;;;;;;;;;;;;;;;;;;107152;1251;60984;-79
2024/01/09 12:02:03;;;;;;;;;;;;;;;;;;108956;1251;59656;-78
2024/01/09 12:04:30;;;;;;;;;;;;;;;;;;107795;1253;61963;-79
2024/01/09 12:06:56;;;;;;;;;;;;;;;;;;109538;1251;59175;-79
2024/01/09 12:09:28;;;;;;;;;;;;;;;;;;109448;1250;58970;-80
2024/01/09 12:11:54;;;;;;;;;;;;;;;;;;109425;1251;59839;-82
2024/01/09 12:14:21;;;;;;;;;;;;;;;;;;109489;1250;58929;-81
2024/01/09 12:16:49;;;;;;;;;;;;;;;;;;109463;1251;59277;-82
2024/01/09 12:19:16;;;;;;;;;;;;;;;;;;109586;1250;60772;-81
2024/01/09 12:21:42;;;;;;;;;;;;;;;;;;109442;1250;59088;-81
2024/01/09 12:24:09;;;;;;;;;;;;;;;;;;107858;1251;59997;-81
2024/01/09 12:26:35;;;;;;;;;;;;;;;;;;107645;1251;62181;-81
2024/01/09 12:29:03;;;;;;;;;;;;;;;;;;107493;1251;60741;-78
2024/01/09 12:31:29;;;;;;;;;;;;;;;;;;107431;1251;62994;-78
2024/01/09 12:33:56;;;;;;;;;;;;;;;;;;107693;1251;61956;-79
2024/01/09 12:36:27;;;;;;;;;;;;;;;;;;106989;1250;61098;-78
2024/01/09 12:38:54;;;;;;;;;;;;;;;;;;107126;1250;60758;-78
2024/01/09 12:41:24;;;;;;;;;;;;;;;;;;107566;1251;59758;-78
2024/01/09 12:43:53;;;;;;;;;;;;;;;;;;106951;1251;63057;-79
2024/01/09 12:46:21;;;;;;;;;;;;;;;;;;107102;1253;59810;-78
2024/01/09 12:48:47;;;;;;;;;;;;;;;;;;107105;1251;59819;-78
2024/01/09 12:51:14;;;;;;;;;;;;;;;;;;107202;1251;60216;-78
2024/01/09 12:53:41;;;;;;;;;;;;;;;;;;106902;1254;60964;-79
2024/01/09 12:56:08;;;;;;;;;;;;;;;;;;107024;1251;61945;-78
2024/01/09 12:58:35;;;;;;;;;;;;;;;;;;107164;1251;61076;-79
2024/01/09 13:01:01;;;;;;;;;;;;;;;;;;107239;1251;62004;-79
2024/01/09 13:03:30;;;;;;;;;;;;;;;;;;107079;1251;59679;-78
2024/01/09 13:05:57;;;;;;;;;;;;;;;;;;107066;1251;59765;-78
2024/01/09 13:08:23;;;;;;;;;;;;;;;;;;107104;1251;60943;-78
2024/01/09 13:10:49;;;;;;;;;;;;;;;;;;106945;1251;59852;-79
2024/01/09 13:13:17;;;;;;;;;;;;;;;;;;106868;1251;60906;-78
2024/01/09 13:15:43;;;;;;;;;;;;;;;;;;107085;1253;60646;-79
2024/01/09 13:18:09;;;;;;;;;;;;;;;;;;107080;1250;59657;-78
2024/01/09 13:20:36;;;;;;;;;;;;;;;;;;107023;1254;60864;-78
2024/01/09 13:23:02;;;;;;;;;;;;;;;;;;107070;1250;59444;-78
2024/01/09 13:25:28;;;;;;;;;;;;;;;;;;106915;1250;60938;-78
2024/01/09 13:27:55;;;;;;;;;;;;;;;;;;106918;1251;62067;-78
2024/01/09 13:30:21;;;;;;;;;;;;;;;;;;106999;1253;62172;-78
2024/01/09 13:32:48;;;;;;;;;;;;;;;;;;107000;1251;60729;-78
2024/01/09 13:35:14;;;;;;;;;;;;;;;;;;106854;1254;59227;-78
2024/01/09 13:37:41;;;;;;;;;;;;;;;;;;106926;1251;59884;-78
2024/01/09 13:40:08;;;;;;;;;;;;;;;;;;106903;1251;60591;-78
2024/01/09 13:42:35;;;;;;;;;;;;;;;;;;107060;1251;59735;-79
2024/01/09 13:45:01;;;;;;;;;;;;;;;;;;107009;1250;59822;-79
2024/01/09 13:47:28;;;;;;;;;;;;;;;;;;106996;1251;60869;-79
2024/01/09 13:49:54;;;;;;;;;;;;;;;;;;106884;1251;60294;-79
2024/01/09 13:52:21;;;;;;;;;;;;;;;;;;107104;1251;59770;-79
2024/01/09 13:54:47;;;;;;;;;;;;;;;;;;106945;1251;59749;-79
2024/01/09 13:57:13;;;;;;;;;;;;;;;;;;107267;1253;60342;-78
2024/01/09 13:59:40;;;;;;;;;;;;;;;;;;106925;1251;59945;-79
2024/01/09 14:02:07;;;;;;;;;;;;;;;;;;107116;1250;59828;-79
2024/01/09 14:04:33;;;;;;;;;;;;;;;;;;106925;1251;60542;-79
2024/01/09 14:06:59;;;;;;;;;;;;;;;;;;106916;1251;59813;-79
2024/01/09 14:09:25;;;;;;;;;;;;;;;;;;106909;1253;59735;-79
2024/01/09 14:11:52;;;;;;;;;;;;;;;;;;107164;1250;59597;-79
2024/01/09 14:14:22;;;;;;;;;;;;;;;;;;107067;1251;59831;-79
2024/01/09 14:16:49;;;;;;;;;;;;;;;;;;107365;1254;59858;-79
2024/01/09 14:19:17;;;;;;;;;;;;;;;;;;107478;1251;59683;-79
2024/01/09 14:21:46;;;;;;;;;;;;;;;;;;107305;1251;63057;-79
2024/01/09 14:24:13;;;;;;;;;;;;;;;;;;106965;1253;59790;-79
2024/01/09 14:26:39;;;;;;;;;;;;;;;;;;106974;1251;61002;-79
2024/01/09 14:29:06;;;;;;;;;;;;;;;;;;107168;1250;60807;-79
2024/01/09 14:31:36;;;;;;;;;;;;;;;;;;107061;1250;59251;-79
2024/01/09 14:34:02;;;;;;;;;;;;;;;;;;106980;1251;61762;-79
2024/01/09 14:36:29;;;;;;;;;;;;;;;;;;107094;1254;60937;-79
2024/01/09 14:38:56;;;;;;;;;;;;;;;;;;106961;1251;60742;-79
2024/01/09 14:41:22;;;;;;;;;;;;;;;;;;107007;1251;59893;-79
2024/01/09 14:43:48;;;;;;;;;;;;;;;;;;106920;1251;59734;-80
2024/01/09 14:46:15;;;;;;;;;;;;;;;;;;106868;1251;59810;-80
2024/01/09 14:48:41;;;;;;;;;;;;;;;;;;106934;1251;60924;-79
2024/01/09 14:51:07;;;;;;;;;;;;;;;;;;106861;1251;59888;-78
2024/01/09 14:53:34;;;;;;;;;;;;;;;;;;106806;1253;62094;-79
2024/01/09 14:56:01;;;;;;;;;;;;;;;;;;106847;1251;59852;-79
2024/01/09 14:58:28;;;;;;;;;;;;;;;;;;106911;1250;61581;-78
2024/01/09 15:00:58;;;;;;;;;;;;;;;;;;107200;1250;59781;-79
2024/01/09 15:03:24;;;;;;;;;;;;;;;;;;106854;1251;59880;-79
2024/01/09 15:05:50;;;;;;;;;;;;;;;;;;106803;1251;60254;-78
2024/01/09 15:08:17;;;;;;;;;;;;;;;;;;106866;1251;59735;-79
2024/01/09 15:10:43;;;;;;;;;;;;;;;;;;107091;1251;59370;-79
2024/01/09 15:13:12;;;;;;;;;;;;;;;;;;107007;1251;60514;-79
2024/01/09 15:15:38;;;;;;;;;;;;;;;;;;106963;1251;59953;-78
2024/01/09 15:18:04;;;;;;;;;;;;;;;;;;106942;1250;60664;-79
2024/01/09 15:20:31;;;;;;;;;;;;;;;;;;107072;1251;60220;-78
2024/01/09 15:22:57;;;;;;;;;;;;;;;;;;106928;1251;59676;-79
2024/01/09 15:25:24;;;;;;;;;;;;;;;;;;106576;1251;60966;-79
2024/01/09 15:27:51;;;;;;;;;;;;;;;;;;106691;1252;60661;-79
2024/01/09 15:30:17;;;;;;;;;;;;;;;;;;106832;1253;59813;-78
2024/01/09 15:32:43;;;;;;;;;;;;;;;;;;106899;1250;59830;-79
2024/01/09 15:35:12;;;;;;;;;;;;;;;;;;106786;1251;60924;-79
2024/01/09 15:37:38;;;;;;;;;;;;;;;;;;106765;1251;61331;-79
2024/01/09 15:40:09;;;;;;;;;;;;;;;;;;106674;1251;59822;-79
2024/01/09 15:42:37;;;;;;;;;;;;;;;;;;106722;1254;59710;-79
2024/01/09 15:45:04;;;;;;;;;;;;;;;;;;106687;1251;59796;-79
2024/01/09 15:47:30;;;;;;;;;;;;;;;;;;106712;1251;61113;-78
2024/01/09 15:49:58;;;;;;;;;;;;;;;;;;106701;1251;59831;-78
2024/01/09 15:52:26;;;;;;;;;;;;;;;;;;106645;1251;59912;-78
2024/01/09 15:54:52;;;;;;;;;;;;;;;;;;106698;1251;59680;-79
2024/01/09 15:57:19;;;;;;;;;;;;;;;;;;106746;1251;59812;-78
2024/01/09 15:59:45;;;;;;;;;;;;;;;;;;106691;1251;62826;-78
2024/01/09 16:02:12;;;;;;;;;;;;;;;;;;107054;1253;59129;-78
2024/01/09 16:04:38;;;;;;;;;;;;;;;;;;106623;1251;59860;-79
2024/01/09 16:07:05;;;;;;;;;;;;;;;;;;106609;1253;61986;-78
2024/01/09 16:09:31;;;;;;;;;;;;;;;;;;106652;1251;61811;-78
2024/01/09 16:11:58;;;;;;;;;;;;;;;;;;106647;1251;60581;-78
2024/01/09 16:14:24;;;;;;;;;;;;;;;;;;106839;1251;60961;-78
2024/01/09 16:16:50;;;;;;;;;;;;;;;;;;106887;1255;60952;-79
2024/01/09 16:19:17;;;;;;;;;;;;;;;;;;107266;1253;59860;-79
2024/01/09 16:21:44;;;;;;;;;;;;;;;;;;107443;1250;61073;-78
2024/01/09 16:24:10;;;;;;;;;;;;;;;;;;107453;1251;59750;-79